createdAt,value
2019-05-26T00:02:08.449Z,15.15
2019-05-26T00:04:41.383Z,14.84
2019-05-26T00:07:27.944Z,14.58
2019-05-26T00:09:48.996Z,14.32
2019-05-26T00:12:22.161Z,14.08
2019-05-26T00:14:55.061Z,13.84
2019-05-26T00:17:28.021Z,16.13
2019-05-26T00:20:00.857Z,19.45
2019-05-26T00:22:34.305Z,18.91
2019-05-26T00:25:07.626Z,17.55
2019-05-26T00:27:40.564Z,16.60
2019-05-26T00:30:13.757Z,15.98
2019-05-26T00:32:46.780Z,15.52
2019-05-26T00:35:19.665Z,15.17
2019-05-26T00:37:52.630Z,14.86
2019-05-26T00:40:25.718Z,14.59
2019-05-26T00:42:58.648Z,14.32
2019-05-26T00:45:31.571Z,14.07
2019-05-26T00:48:04.505Z,13.88
2019-05-26T00:50:37.452Z,15.97
2019-05-26T00:53:10.373Z,19.30
2019-05-26T00:55:43.380Z,19.14
2019-05-26T00:58:16.251Z,17.77
2019-05-26T01:00:49.215Z,16.81
2019-05-26T01:03:22.078Z,16.18
2019-05-26T01:05:54.987Z,15.72
2019-05-26T01:08:27.866Z,15.35
2019-05-26T01:11:02.123Z,15.04
2019-05-26T01:13:36.456Z,14.76
2019-05-26T01:16:10.696Z,14.53
2019-05-26T01:18:43.613Z,14.31
2019-05-26T01:21:16.994Z,14.08
2019-05-26T01:23:49.916Z,16.38
2019-05-26T01:26:24.171Z,19.62
2019-05-26T01:28:57.222Z,19.17
2019-05-26T01:31:30.158Z,17.80
2019-05-26T01:34:03.079Z,16.90
2019-05-26T01:36:36.234Z,16.28
2019-05-26T01:39:09.858Z,15.83
2019-05-26T01:41:42.729Z,15.49
2019-05-26T01:44:15.617Z,15.18
2019-05-26T01:46:49.384Z,14.92
2019-05-26T01:49:23.244Z,14.69
2019-05-26T01:51:56.486Z,14.46
2019-05-26T01:54:29.342Z,14.32
2019-05-26T01:57:02.145Z,16.96
2019-05-26T01:59:35.132Z,19.87
2019-05-26T02:02:08.010Z,19.21
2019-05-26T02:04:40.847Z,17.85
2019-05-26T02:07:13.793Z,17.01
2019-05-26T02:09:46.706Z,16.45
2019-05-26T02:12:20.556Z,15.98
2019-05-26T02:14:53.438Z,15.66
2019-05-26T02:17:26.465Z,15.34
2019-05-26T02:19:59.319Z,15.08
2019-05-26T02:22:32.281Z,14.87
2019-05-26T02:25:05.785Z,17.04
2019-05-26T02:27:38.602Z,19.99
2019-05-26T02:30:13.166Z,19.17
2019-05-26T02:32:45.995Z,17.94
2019-05-26T02:35:19.586Z,17.08
2019-05-26T02:37:52.430Z,16.51
2019-05-26T02:40:25.750Z,16.08
2019-05-26T02:42:59.504Z,15.76
2019-05-26T02:45:32.838Z,15.45
2019-05-26T02:48:06.320Z,15.18
2019-05-26T02:50:39.158Z,14.94
2019-05-26T02:53:11.952Z,16.94
2019-05-26T02:55:44.774Z,20.06
2019-05-26T02:58:17.560Z,19.49
2019-05-26T03:00:50.357Z,18.21
2019-05-26T03:03:23.439Z,17.29
2019-05-26T03:05:57.008Z,16.69
2019-05-26T03:08:30.576Z,16.24
2019-05-26T03:11:04.535Z,15.88
2019-05-26T03:13:40.010Z,15.59
2019-05-26T03:16:13.531Z,15.28
2019-05-26T03:18:48.099Z,15.04
2019-05-26T03:21:22.621Z,14.81
2019-05-26T03:23:56.513Z,17.17
2019-05-26T03:26:31.098Z,20.02
2019-05-26T03:29:04.279Z,19.10
2019-05-26T03:31:37.172Z,17.87
2019-05-26T03:34:09.973Z,17.03
2019-05-26T03:36:42.889Z,16.46
2019-05-26T03:39:15.699Z,16.05
2019-05-26T03:41:48.553Z,15.69
2019-05-26T03:44:22.365Z,15.39
2019-05-26T03:46:55.240Z,15.15
2019-05-26T03:49:29.155Z,14.90
2019-05-26T03:52:02.123Z,17.03
2019-05-26T03:54:35.076Z,20.03
2019-05-26T03:57:08.977Z,19.27
2019-05-26T03:59:42.090Z,18.07
2019-05-26T04:02:14.962Z,17.21
2019-05-26T04:04:47.781Z,16.62
2019-05-26T04:07:20.573Z,16.21
2019-05-26T04:10:04.788Z,15.86
2019-05-26T04:12:28.082Z,15.56
2019-05-26T04:15:00.899Z,15.29
2019-05-26T04:17:33.833Z,15.08
2019-05-26T04:20:07.951Z,17.38
2019-05-26T04:22:40.783Z,20.13
2019-05-26T04:25:13.801Z,19.27
2019-05-26T04:27:46.598Z,18.10
2019-05-26T04:30:19.464Z,17.28
2019-05-26T04:32:52.290Z,16.70
2019-05-26T04:35:25.270Z,16.31
2019-05-26T04:37:58.177Z,16.00
2019-05-26T04:40:30.989Z,15.70
2019-05-26T04:43:03.913Z,15.47
2019-05-26T04:45:36.789Z,15.25
2019-05-26T04:48:09.642Z,15.07
2019-05-26T04:50:43.942Z,16.24
2019-05-26T04:53:17.154Z,19.72
2019-05-26T04:55:49.936Z,19.45
2019-05-26T04:58:22.784Z,18.28
2019-05-26T05:00:55.661Z,17.42
2019-05-26T05:03:28.626Z,16.91
2019-05-26T05:06:01.557Z,16.53
2019-05-26T05:08:34.524Z,16.27
2019-05-26T05:11:07.560Z,16.01
2019-05-26T05:13:40.425Z,15.78
2019-05-26T05:16:13.412Z,15.63
2019-05-26T05:18:46.360Z,15.47
2019-05-26T05:21:19.342Z,15.29
2019-05-26T05:23:52.219Z,15.19
2019-05-26T05:26:25.150Z,15.08
2019-05-26T05:28:57.965Z,17.41
2019-05-26T05:31:30.971Z,18.99
2019-05-26T05:34:04.081Z,18.11
2019-05-26T05:36:37.253Z,17.41
2019-05-26T05:39:10.615Z,16.93
2019-05-26T05:41:43.834Z,16.58
2019-05-26T05:44:16.649Z,16.33
2019-05-26T05:46:49.620Z,16.11
2019-05-26T05:49:22.480Z,15.98
2019-05-26T05:51:56.402Z,15.81
2019-05-26T05:54:29.323Z,15.70
2019-05-26T05:57:02.153Z,15.59
2019-05-26T05:59:35.011Z,15.49
2019-05-26T06:02:07.924Z,15.43
2019-05-26T06:04:40.771Z,16.04
2019-05-26T06:07:13.730Z,19.48
2019-05-26T06:09:46.548Z,19.99
2019-05-26T06:12:19.882Z,18.96
2019-05-26T06:14:53.949Z,18.21
2019-05-26T06:17:26.842Z,17.69
2019-05-26T06:19:59.756Z,17.37
2019-05-26T06:22:32.707Z,17.08
2019-05-26T06:25:06.286Z,16.87
2019-05-26T06:27:39.198Z,16.72
2019-05-26T06:30:13.525Z,16.67
2019-05-26T06:32:46.453Z,16.62
2019-05-26T06:35:19.733Z,16.55
2019-05-26T06:37:52.630Z,16.48
2019-05-26T06:40:25.484Z,16.39
2019-05-26T06:42:58.830Z,16.33
2019-05-26T06:45:31.768Z,16.29
2019-05-26T06:48:05.648Z,16.28
2019-05-26T06:50:39.470Z,16.25
2019-05-26T06:53:12.312Z,16.22
2019-05-26T06:55:45.358Z,16.32
2019-05-26T06:58:18.362Z,16.41
2019-05-26T07:00:52.719Z,16.56
2019-05-26T07:03:25.762Z,16.70
2019-05-26T07:05:59.453Z,16.87
2019-05-26T07:08:32.371Z,17.06
2019-05-26T07:11:05.457Z,17.25
2019-05-26T07:13:38.368Z,17.43
2019-05-26T07:16:11.251Z,17.58
2019-05-26T07:18:44.150Z,17.76
2019-05-26T07:21:17.067Z,17.94
2019-05-26T07:23:49.920Z,18.14
2019-05-26T07:26:22.859Z,18.28
2019-05-26T07:28:55.758Z,18.36
2019-05-26T07:31:30.133Z,18.44
2019-05-26T07:34:03.110Z,18.54
2019-05-26T07:36:36.287Z,18.65
2019-05-26T07:39:10.691Z,18.69
2019-05-26T07:41:43.482Z,18.76
2019-05-26T07:44:17.498Z,18.83
2019-05-26T07:46:50.428Z,18.89
2019-05-26T07:49:23.375Z,18.93
2019-05-26T15:58:05.872Z,22.50
2019-05-26T16:00:39.122Z,22.43
2019-05-26T16:03:12.425Z,22.36
2019-05-26T16:05:45.589Z,22.29
2019-05-26T16:08:18.704Z,22.23
2019-05-26T16:10:52.143Z,22.17
2019-05-26T16:13:25.081Z,22.13
2019-05-26T16:15:58.021Z,22.08
2019-05-26T16:18:31.060Z,22.08
2019-05-26T16:21:03.893Z,22.03
2019-05-26T16:23:37.176Z,22.03
2019-05-26T16:26:10.069Z,22.01
2019-05-26T16:28:43.217Z,21.98
2019-05-26T16:31:17.760Z,21.96
2019-05-26T16:33:50.710Z,21.91
2019-05-26T16:36:24.141Z,21.91
2019-05-26T16:39:00.308Z,21.89
2019-05-26T16:41:33.173Z,21.88
2019-05-26T16:44:06.712Z,21.86
2019-05-26T16:46:55.190Z,21.88
2019-05-26T16:49:14.795Z,21.85
2019-05-26T16:51:47.815Z,21.84
2019-05-26T16:54:22.713Z,21.85
2019-05-26T16:56:55.845Z,21.81
2019-05-26T16:59:29.360Z,21.82
2019-05-26T17:02:02.561Z,21.79
2019-05-26T17:04:35.869Z,21.78
2019-05-26T17:07:08.823Z,21.76
2019-05-26T17:09:43.388Z,21.75
2019-05-26T17:12:16.353Z,21.76
2019-05-26T17:14:49.287Z,21.72
2019-05-26T17:17:22.198Z,21.74
2019-05-26T17:19:55.063Z,21.72
2019-05-26T17:22:27.931Z,21.72
2019-05-26T17:25:00.892Z,21.69
2019-05-26T17:27:33.770Z,21.69
2019-05-26T17:30:07.621Z,21.68
2019-05-26T17:32:40.564Z,21.67
2019-05-26T17:35:13.377Z,21.67
2019-05-26T17:37:46.300Z,21.64
2019-05-26T17:40:22.642Z,21.61
2019-05-26T17:42:55.953Z,21.57
2019-05-26T17:45:28.854Z,21.54
2019-05-26T17:48:01.785Z,21.50
2019-05-26T17:50:34.949Z,21.47
2019-05-26T17:53:07.796Z,21.43
2019-05-26T17:55:40.810Z,21.36
2019-05-26T17:58:14.302Z,21.30
2019-05-26T18:00:47.200Z,21.26
2019-05-26T18:03:20.298Z,21.20
2019-05-26T18:05:53.196Z,21.16
2019-05-26T18:08:27.109Z,21.10
2019-05-26T18:10:59.935Z,21.03
2019-05-26T18:13:32.848Z,20.99
2019-05-26T18:16:05.769Z,20.92
2019-05-26T18:18:38.655Z,20.88
2019-05-26T18:21:11.530Z,20.81
2019-05-26T18:23:44.502Z,20.76
2019-05-26T18:26:17.460Z,20.68
2019-05-26T18:28:50.329Z,20.63
2019-05-26T18:31:23.228Z,20.56
2019-05-26T18:33:56.101Z,20.52
2019-05-26T18:36:29.018Z,20.45
2019-05-26T18:39:01.935Z,20.43
2019-05-26T18:41:35.313Z,20.38
2019-05-26T18:44:08.157Z,20.31
2019-05-26T18:46:41.098Z,20.27
2019-05-26T18:49:13.977Z,20.24
2019-05-26T18:51:46.881Z,20.17
2019-05-26T18:54:19.769Z,20.14
2019-05-26T18:56:52.698Z,20.07
2019-05-26T18:59:25.549Z,20.00
2019-05-26T19:01:58.469Z,19.97
2019-05-26T19:04:31.310Z,19.93
2019-05-26T19:07:04.214Z,19.90
2019-05-26T19:09:37.323Z,19.86
2019-05-26T19:12:10.563Z,19.79
2019-05-26T19:14:43.390Z,19.79
2019-05-26T19:17:17.622Z,19.73
2019-05-26T19:19:50.619Z,19.72
2019-05-26T19:22:24.224Z,19.69
2019-05-26T19:24:57.311Z,19.64
2019-05-26T19:27:30.469Z,19.61
2019-05-26T19:30:03.690Z,19.58
2019-05-26T19:32:36.954Z,19.54
2019-05-26T19:35:10.459Z,19.54
2019-05-26T19:37:43.433Z,19.51
2019-05-26T19:40:17.887Z,19.48
2019-05-26T19:42:52.117Z,19.44
2019-05-26T19:45:24.933Z,19.42
2019-05-26T19:47:57.918Z,19.39
2019-05-26T19:50:30.919Z,19.37
2019-05-26T19:53:03.789Z,19.33
2019-05-26T19:55:36.805Z,19.31
2019-05-26T19:58:09.739Z,19.28
2019-05-26T20:00:42.952Z,19.28
2019-05-26T20:03:16.453Z,19.26
2019-05-26T20:05:49.380Z,19.23
2019-05-26T20:08:22.205Z,19.23
2019-05-26T20:10:55.131Z,19.21
2019-05-26T20:13:28.136Z,19.18
2019-05-26T20:16:01.164Z,19.15
2019-05-26T20:18:34.120Z,19.18
2019-05-26T20:21:07.136Z,19.14
2019-05-26T20:23:40.071Z,19.13
2019-05-26T20:26:13.026Z,19.10
2019-05-26T20:28:46.033Z,19.10
2019-05-26T20:31:18.860Z,19.07
2019-05-26T20:33:51.712Z,19.04
2019-05-26T20:36:24.536Z,19.04
2019-05-26T20:38:57.348Z,19.00
2019-05-26T20:41:30.235Z,18.99
2019-05-26T20:44:03.450Z,18.94
2019-05-26T20:46:36.354Z,18.91
2019-05-26T20:49:09.223Z,18.89
2019-05-26T20:51:42.080Z,18.89
2019-05-26T20:54:15.076Z,18.84
2019-05-26T20:56:48.073Z,18.83
2019-05-26T20:59:21.016Z,18.78
2019-05-26T21:01:53.973Z,18.75
2019-05-26T21:04:26.982Z,18.72
2019-05-26T21:06:59.962Z,18.69
2019-05-26T21:09:32.916Z,18.66
2019-05-26T21:12:06.000Z,18.62
2019-05-26T21:14:38.942Z,18.59
2019-05-26T21:17:11.795Z,18.52
2019-05-26T21:19:44.689Z,18.51
2019-05-26T21:22:18.824Z,18.45
2019-05-26T21:24:51.694Z,18.41
2019-05-26T21:27:24.598Z,18.38
2019-05-26T21:29:57.474Z,18.35
2019-05-26T21:32:31.395Z,18.28
2019-05-26T21:35:05.006Z,18.25
2019-05-26T21:37:37.973Z,18.20
2019-05-26T21:40:11.994Z,18.17
2019-05-26T21:42:47.320Z,18.11
2019-05-26T21:45:20.283Z,18.05
2019-05-26T21:47:53.207Z,18.00
2019-05-26T21:50:26.503Z,17.93
2019-05-26T21:52:59.502Z,17.90
2019-05-26T21:55:32.337Z,17.83
2019-05-26T21:58:05.245Z,17.79
2019-05-26T22:00:44.193Z,17.73
2019-05-26T22:03:17.217Z,17.66
2019-05-26T22:05:50.105Z,17.64
2019-05-26T22:08:23.060Z,17.56
2019-05-26T22:10:55.991Z,17.49
2019-05-26T22:13:28.877Z,17.46
2019-05-26T22:16:01.835Z,17.42
2019-05-26T22:18:34.751Z,17.35
2019-05-26T22:21:09.103Z,17.31
2019-05-26T22:23:41.920Z,17.27
2019-05-26T22:26:14.713Z,17.19
2019-05-26T22:28:47.682Z,17.15
2019-05-26T22:31:20.487Z,17.13
2019-05-26T22:33:53.296Z,17.08
2019-05-26T22:36:26.087Z,17.04
2019-05-26T22:38:59.013Z,17.01
2019-05-26T22:41:31.893Z,16.97
2019-05-26T22:44:04.883Z,16.93
2019-05-26T22:46:37.737Z,16.90
2019-05-26T22:49:10.597Z,16.86
2019-05-26T22:51:43.447Z,16.84
2019-05-26T22:54:16.411Z,16.80
2019-05-26T22:56:49.396Z,16.77
2019-05-26T22:59:22.394Z,16.73
2019-05-26T23:01:55.324Z,16.70
2019-05-26T23:04:28.509Z,16.67
2019-05-26T23:07:01.409Z,16.63
2019-05-26T23:09:34.328Z,16.63
2019-05-26T23:12:08.707Z,16.60
2019-05-26T23:14:42.129Z,16.60
2019-05-26T23:17:15.124Z,16.56
2019-05-26T23:19:50.415Z,16.55
2019-05-26T23:22:24.322Z,16.52
2019-05-26T23:24:57.504Z,16.53
2019-05-26T23:27:31.093Z,16.48
2019-05-26T23:30:05.021Z,16.45
2019-05-26T23:32:38.402Z,16.45
2019-05-26T23:35:12.813Z,16.39
2019-05-26T23:37:46.025Z,16.38
2019-05-26T23:40:19.777Z,16.36
2019-05-26T23:42:54.136Z,16.32
2019-05-26T23:45:27.529Z,16.31
2019-05-26T23:48:00.660Z,16.29
2019-05-26T23:50:33.421Z,16.29
2019-05-26T23:53:06.301Z,16.24
2019-05-26T23:55:39.133Z,16.24
2019-05-26T23:58:12.050Z,16.18
